createdAt,value
2022-08-05T00:00:16.886Z,39.43
2022-08-05T00:02:50.856Z,39.35
2022-08-05T00:06:01.768Z,39.44
2022-08-05T00:08:32.729Z,39.28
2022-08-05T00:11:00.540Z,39.29
2022-08-05T00:13:38.195Z,39.29
2022-08-05T00:16:08.947Z,39.70
2022-08-05T00:18:37.909Z,39.51
2022-08-05T00:21:06.442Z,39.14
2022-08-05T00:23:45.919Z,38.93
2022-08-05T00:26:16.322Z,39.65
2022-08-05T00:28:45.718Z,39.36
2022-08-05T00:31:13.332Z,39.20
2022-08-05T00:34:55.196Z,39.00
2022-08-05T00:37:10.421Z,39.10
2022-08-05T00:39:16.048Z,39.03
2022-08-05T00:41:55.232Z,38.98
2022-08-05T00:44:30.946Z,39.09
2022-08-05T00:47:02.089Z,38.70
2022-08-05T00:49:32.757Z,38.79
2022-08-05T00:52:12.064Z,38.75
2022-08-05T00:54:39.944Z,38.56
2022-08-05T00:57:10.794Z,38.73
2022-08-05T00:59:42.063Z,39.02
2022-08-05T01:02:12.366Z,38.83
2022-08-05T01:04:42.229Z,38.96
2022-08-05T01:07:13.546Z,38.75
2022-08-05T01:09:41.918Z,38.84
2022-08-05T01:12:17.882Z,38.48
2022-08-05T01:14:58.413Z,38.76
2022-08-05T01:17:53.677Z,38.69
2022-08-05T01:20:50.042Z,38.71
2022-08-05T01:23:40.217Z,38.79
2022-08-05T01:26:38.112Z,39.39
2022-08-05T01:29:19.286Z,38.90
2022-08-05T01:31:54.968Z,38.97
2022-08-05T01:34:30.827Z,38.72
2022-08-05T01:37:25.598Z,39.32
2022-08-05T01:39:54.939Z,39.07
2022-08-05T01:42:27.081Z,38.84
2022-08-05T01:44:59.931Z,39.37
2022-08-05T01:47:39.045Z,38.97
2022-08-05T01:50:15.208Z,39.12
2022-08-05T01:52:44.326Z,39.38
2022-08-05T01:55:12.151Z,39.33
2022-08-05T01:58:09.945Z,39.14
2022-08-05T02:00:31.854Z,39.13
2022-08-05T02:03:29.238Z,39.46
2022-08-05T02:06:03.621Z,39.68
2022-08-05T02:08:58.164Z,39.31
2022-08-05T02:11:33.408Z,39.46
2022-08-05T02:14:27.814Z,39.35
2022-08-05T02:16:55.630Z,39.08
2022-08-05T02:19:40.610Z,40.11
2022-08-05T02:22:25.603Z,40.92
2022-08-05T02:25:06.510Z,40.23
2022-08-05T02:27:59.905Z,39.90
2022-08-05T02:30:26.913Z,40.37
2022-08-05T02:32:55.390Z,40.72
2022-08-05T02:35:28.132Z,40.52
2022-08-05T02:38:02.402Z,40.34
2022-08-05T02:40:29.959Z,40.83
2022-08-05T02:42:58.147Z,41.02
2022-08-05T02:45:25.901Z,41.07
2022-08-05T02:47:58.566Z,40.86
2022-08-05T02:50:43.919Z,40.66
2022-08-05T02:53:18.651Z,40.00
2022-08-05T02:55:53.958Z,40.00
2022-08-05T02:58:23.109Z,40.12
2022-08-05T03:00:55.707Z,40.50
2022-08-05T03:03:23.648Z,40.17
2022-08-05T03:06:54.538Z,40.24
2022-08-05T03:08:42.587Z,40.58
2022-08-05T03:11:56.411Z,40.66
2022-08-05T03:14:07.929Z,40.95
2022-08-05T03:16:35.801Z,40.43
2022-08-05T03:19:12.731Z,40.63
2022-08-05T03:21:48.948Z,40.81
2022-08-05T03:24:26.853Z,40.76
2022-08-05T03:26:59.035Z,40.75
2022-08-05T03:29:45.459Z,40.50
2022-08-05T03:32:15.418Z,41.37
2022-08-05T03:34:50.589Z,41.09
2022-08-05T03:37:19.864Z,42.03
2022-08-05T03:39:58.463Z,41.26
2022-08-05T03:42:27.105Z,41.33
2022-08-05T03:44:56.997Z,42.31
2022-08-05T03:47:25.063Z,41.54
2022-08-05T03:49:53.047Z,41.76
2022-08-05T03:52:48.367Z,42.13
2022-08-05T03:56:10.575Z,42.28
2022-08-05T03:58:01.590Z,41.69
2022-08-05T04:00:32.229Z,41.40
2022-08-05T04:02:59.935Z,41.16
2022-08-05T04:05:33.266Z,41.44
2022-08-05T04:08:03.065Z,41.23
2022-08-05T04:10:37.699Z,41.88
2022-08-05T04:13:07.270Z,41.54
2022-08-05T04:15:36.056Z,41.89
2022-08-05T04:18:06.800Z,42.12
2022-08-05T04:20:35.435Z,41.82
2022-08-05T04:23:03.028Z,42.79
2022-08-05T04:25:57.458Z,42.19
2022-08-05T04:28:19.613Z,41.64
2022-08-05T04:30:48.076Z,41.52
2022-08-05T04:33:15.630Z,41.53
2022-08-05T04:36:10.831Z,42.25
2022-08-05T04:38:39.769Z,42.58
2022-08-05T04:41:09.545Z,41.28
2022-08-05T04:43:48.135Z,41.26
2022-08-05T04:46:27.906Z,41.03
2022-08-05T04:48:57.987Z,41.00
2022-08-05T04:51:30.368Z,40.84
2022-08-05T04:53:57.836Z,40.02
2022-08-05T04:56:35.273Z,40.43
2022-08-05T04:59:22.474Z,39.14
2022-08-05T05:02:35.179Z,38.65
2022-08-05T05:04:47.488Z,39.07
2022-08-05T05:07:18.179Z,38.23
2022-08-05T05:09:45.644Z,37.98
2022-08-05T05:12:13.029Z,37.44
2022-08-05T05:14:49.448Z,35.06
2022-08-05T05:17:23.478Z,31.67
2022-08-05T05:19:56.495Z,29.13
2022-08-05T05:22:25.845Z,27.07
2022-08-05T05:25:00.100Z,24.98
2022-08-05T05:27:45.040Z,25.02
2022-08-05T05:30:15.498Z,23.65
2022-08-05T05:33:00.475Z,21.58
2022-08-05T05:35:34.184Z,20.28
2022-08-05T05:38:07.015Z,18.98
2022-08-05T05:40:37.285Z,18.45
2022-08-05T05:43:04.715Z,17.03
2022-08-05T05:45:36.016Z,16.72
2022-08-05T05:48:08.363Z,16.09
2022-08-05T05:50:41.183Z,16.04
2022-08-05T05:53:21.376Z,15.85
2022-08-05T05:55:51.839Z,15.31
2022-08-05T05:58:30.119Z,15.41
2022-08-05T06:01:02.205Z,16.36
2022-08-05T06:04:01.305Z,14.68
2022-08-05T06:06:33.053Z,13.94
2022-08-05T06:09:07.688Z,14.10
2022-08-05T06:11:35.261Z,13.50
2022-08-05T06:14:07.023Z,12.87
2022-08-05T06:16:37.105Z,12.56
2022-08-05T06:19:07.355Z,13.78
2022-08-05T06:21:38.444Z,12.72
2022-08-05T06:24:12.478Z,13.12
2022-08-05T06:26:52.150Z,13.10
2022-08-05T06:29:45.480Z,12.69
2022-08-05T06:32:21.195Z,11.00
2022-08-05T06:34:55.321Z,10.96
2022-08-05T06:37:57.418Z,10.91
2022-08-05T06:40:20.567Z,10.41
2022-08-05T06:42:51.742Z,10.28
2022-08-05T06:45:43.914Z,9.25
2022-08-05T06:48:35.891Z,11.07
2022-08-05T06:50:57.965Z,9.86
2022-08-05T06:53:27.807Z,9.00
2022-08-05T06:55:59.980Z,8.49
2022-08-05T06:58:30.203Z,8.10
2022-08-05T07:01:06.801Z,9.24
2022-08-05T07:03:34.792Z,9.41
2022-08-05T07:06:06.137Z,8.75
2022-08-05T07:08:47.345Z,8.03
2022-08-05T07:11:22.016Z,7.94
2022-08-05T07:14:20.086Z,7.44
2022-08-05T07:18:07.193Z,7.28
2022-08-05T07:20:29.854Z,8.06
2022-08-05T07:22:28.169Z,7.87
2022-08-05T07:24:58.870Z,7.52
2022-08-05T07:27:27.582Z,7.18
2022-08-05T07:30:27.873Z,7.41
2022-08-05T07:32:57.934Z,7.09
2022-08-05T07:36:02.606Z,6.74
2022-08-05T07:38:32.305Z,6.58
2022-08-05T07:42:09.648Z,6.69
2022-08-05T07:44:01.998Z,6.71
2022-08-05T07:46:31.492Z,6.33
2022-08-05T07:49:05.778Z,6.43
2022-08-05T07:51:37.252Z,6.73
2022-08-05T07:54:09.996Z,6.94
2022-08-05T07:57:01.343Z,6.79
2022-08-05T07:59:38.591Z,6.34
2022-08-05T08:02:16.499Z,6.06
2022-08-05T08:04:46.515Z,5.82
2022-08-05T08:07:14.140Z,6.19
2022-08-05T08:09:43.305Z,5.90
2022-08-05T08:12:37.378Z,5.45
2022-08-05T08:15:02.667Z,5.35
2022-08-05T08:17:32.218Z,5.84
2022-08-05T08:20:23.059Z,5.97
2022-08-05T08:22:54.290Z,6.08
2022-08-05T08:25:26.755Z,6.03
2022-08-05T08:28:18.678Z,5.51
2022-08-05T08:30:58.723Z,5.69
2022-08-05T08:33:27.289Z,5.20
2022-08-05T08:36:18.518Z,5.66
2022-08-05T08:38:43.515Z,4.92
2022-08-05T08:41:20.645Z,5.75
2022-08-05T08:45:19.799Z,5.24
2022-08-05T08:46:41.787Z,4.74
2022-08-05T08:50:05.841Z,5.63
2022-08-05T08:52:13.444Z,6.40
2022-08-05T08:54:52.668Z,6.00
2022-08-05T08:57:20.559Z,5.64
2022-08-05T08:59:50.482Z,5.79
2022-08-05T09:02:20.040Z,5.64
2022-08-05T09:04:58.451Z,6.13
2022-08-05T09:07:53.530Z,5.26
2022-08-05T09:10:22.411Z,8.11
2022-08-05T09:12:56.840Z,6.01
2022-08-05T09:15:26.357Z,6.05
2022-08-05T09:17:58.029Z,5.59
2022-08-05T09:20:37.598Z,5.56
2022-08-05T09:23:19.601Z,5.54
2022-08-05T09:26:01.205Z,5.21
2022-08-05T09:28:33.418Z,6.05
2022-08-05T09:31:22.173Z,5.64
2022-08-05T09:33:58.463Z,5.48
2022-08-05T09:36:38.468Z,6.00
2022-08-05T09:39:23.116Z,5.69
2022-08-05T09:41:58.339Z,5.35
2022-08-05T09:44:46.046Z,5.04
2022-08-05T09:47:25.751Z,5.11
2022-08-05T09:50:02.101Z,5.27
2022-08-05T09:52:34.501Z,5.21
2022-08-05T09:55:58.061Z,5.50
2022-08-05T09:57:58.646Z,5.22
2022-08-05T10:00:30.582Z,5.37
2022-08-05T10:02:59.151Z,5.50
2022-08-05T10:05:28.092Z,5.50
2022-08-05T10:08:34.603Z,5.39
2022-08-05T10:10:54.447Z,5.77
2022-08-05T10:13:47.494Z,5.91
2022-08-05T10:16:33.922Z,5.52
2022-08-05T10:19:01.861Z,5.86
2022-08-05T10:21:40.141Z,5.65
2022-08-05T10:24:10.698Z,5.53
2022-08-05T10:26:51.539Z,5.45
2022-08-05T10:30:05.758Z,5.35
2022-08-05T10:32:52.430Z,5.13
2022-08-05T10:35:01.138Z,5.51
2022-08-05T10:37:40.074Z,5.28
2022-08-05T10:40:35.954Z,4.85
2022-08-05T10:43:30.845Z,4.95
2022-08-05T10:46:07.950Z,6.28
2022-08-05T10:48:52.728Z,7.42
2022-08-05T10:51:28.850Z,7.87
2022-08-05T10:54:01.024Z,9.58
2022-08-05T10:56:30.328Z,10.24
2022-08-05T10:58:58.148Z,10.77
2022-08-05T11:01:54.254Z,12.39
2022-08-05T11:04:26.650Z,13.10
2022-08-05T11:07:01.390Z,13.58
2022-08-05T11:09:45.434Z,13.15
2022-08-05T11:12:37.229Z,13.54
2022-08-05T11:15:19.454Z,13.99
2022-08-05T11:17:59.486Z,14.16
2022-08-05T11:20:41.466Z,16.55
2022-08-05T11:24:02.385Z,15.93
2022-08-05T11:26:32.517Z,16.24
2022-08-05T11:29:11.917Z,17.26
2022-08-05T11:31:58.242Z,18.63
2022-08-05T11:34:51.231Z,18.65
2022-08-05T11:38:28.304Z,19.29
2022-08-05T11:41:01.347Z,17.61
2022-08-05T11:44:01.071Z,17.58
2022-08-05T11:46:35.259Z,17.60
2022-08-05T11:49:03.390Z,17.33
2022-08-05T11:51:44.438Z,16.97
2022-08-05T11:54:33.094Z,19.08
2022-08-05T11:57:08.177Z,19.19
2022-08-05T11:59:50.994Z,19.14
2022-08-05T12:02:30.685Z,19.52
2022-08-05T12:05:01.413Z,18.75
2022-08-05T12:08:07.814Z,18.22
2022-08-05T12:10:24.928Z,18.35
2022-08-05T12:13:15.470Z,18.32
2022-08-05T12:15:45.355Z,18.58
2022-08-05T12:18:19.009Z,19.69
2022-08-05T12:20:48.446Z,18.84
2022-08-05T12:23:16.788Z,18.67
2022-08-05T12:25:56.644Z,18.21
2022-08-05T12:28:35.032Z,18.84
2022-08-05T12:31:04.417Z,18.82
2022-08-05T12:33:36.797Z,19.38
2022-08-05T12:36:08.243Z,18.66
2022-08-05T12:38:40.160Z,18.89
2022-08-05T12:41:13.415Z,19.06
2022-08-05T12:43:55.134Z,18.14
2022-08-05T12:46:33.212Z,18.25
2022-08-05T12:49:25.610Z,17.75
2022-08-05T12:52:13.717Z,17.51
2022-08-05T12:54:44.727Z,18.05
2022-08-05T12:57:13.170Z,17.76
2022-08-05T13:01:58.568Z,18.55
2022-08-05T13:02:40.135Z,17.98
2022-08-05T13:05:08.430Z,18.41
2022-08-05T13:08:00.029Z,18.24
2022-08-05T13:10:28.799Z,18.05
2022-08-05T13:12:58.250Z,17.67
2022-08-05T13:15:41.980Z,18.18
2022-08-05T13:18:21.040Z,17.73
2022-08-05T13:20:51.326Z,17.57
2022-08-05T13:23:22.417Z,17.56
2022-08-05T13:25:59.616Z,17.55
2022-08-05T13:28:29.055Z,17.25
2022-08-05T13:30:57.077Z,17.58
2022-08-05T13:34:22.728Z,18.24
2022-08-05T13:36:14.356Z,17.51
2022-08-05T13:38:43.102Z,16.91
2022-08-05T13:41:11.488Z,17.03
2022-08-05T13:43:44.271Z,17.16
2022-08-05T13:46:13.474Z,18.35
2022-08-05T13:48:58.547Z,17.68
2022-08-05T13:51:40.374Z,17.92
2022-08-05T13:54:12.762Z,17.39
2022-08-05T13:56:45.318Z,19.21
2022-08-05T13:59:24.186Z,18.97
2022-08-05T14:01:57.363Z,17.94
2022-08-05T14:04:53.029Z,17.87
2022-08-05T14:07:55.653Z,18.48
2022-08-05T14:10:19.262Z,18.94
2022-08-05T14:12:55.757Z,19.50
2022-08-05T14:16:05.475Z,19.29
2022-08-05T14:18:14.858Z,18.75
2022-08-05T14:20:46.984Z,18.89
2022-08-05T14:23:25.291Z,19.14
2022-08-05T14:25:58.578Z,18.35
2022-08-05T14:28:29.739Z,19.02
2022-08-05T14:31:00.852Z,19.18
2022-08-05T14:33:32.514Z,19.05
2022-08-05T14:36:21.282Z,18.40
2022-08-05T14:38:50.055Z,18.98
2022-08-05T14:41:18.701Z,18.50
2022-08-05T14:44:02.529Z,18.84
2022-08-05T14:46:34.966Z,18.74
2022-08-05T14:49:07.239Z,18.49
2022-08-05T14:51:37.576Z,18.86
2022-08-05T14:54:28.328Z,18.46
2022-08-05T14:56:54.716Z,18.35
2022-08-05T14:59:22.481Z,18.15
2022-08-05T15:01:50.395Z,18.27
2022-08-05T15:04:20.709Z,18.79
2022-08-05T15:06:50.591Z,18.95
2022-08-05T15:09:52.463Z,18.21
2022-08-05T15:12:06.808Z,18.15
2022-08-05T15:14:48.429Z,18.61
2022-08-05T15:17:45.929Z,18.54
2022-08-05T15:20:17.213Z,19.03
2022-08-05T15:22:54.230Z,17.66
2022-08-05T15:25:51.615Z,18.11
2022-08-05T15:28:14.575Z,19.53
2022-08-05T15:30:43.827Z,18.98
2022-08-05T15:33:56.442Z,18.55
2022-08-05T15:36:03.682Z,18.28
2022-08-05T15:38:41.903Z,19.76
2022-08-05T15:41:20.780Z,18.49
2022-08-05T15:43:51.749Z,18.23
2022-08-05T15:46:20.130Z,18.42
2022-08-05T15:48:54.702Z,18.55
2022-08-05T15:52:04.373Z,18.19
2022-08-05T15:54:17.466Z,18.52
2022-08-05T15:56:45.179Z,18.56
2022-08-05T15:59:20.199Z,18.57
2022-08-05T16:01:52.855Z,18.45
2022-08-05T16:04:25.489Z,19.11
2022-08-05T16:06:56.530Z,18.73
2022-08-05T16:09:25.853Z,18.73
2022-08-05T16:11:54.182Z,17.87
2022-08-05T16:14:22.593Z,17.98
2022-08-05T16:16:50.382Z,18.46
2022-08-05T16:19:18.868Z,18.32
2022-08-05T16:22:00.545Z,18.79
2022-08-05T16:24:41.840Z,18.45
2022-08-05T16:27:16.447Z,18.26
2022-08-05T16:29:50.235Z,18.73
2022-08-05T16:32:28.652Z,18.92
2022-08-05T16:34:57.555Z,18.50
2022-08-05T16:38:02.323Z,18.11
2022-08-05T16:40:28.649Z,18.52
2022-08-05T16:42:56.794Z,18.71
2022-08-05T16:46:03.790Z,18.86
2022-08-05T16:48:11.827Z,19.39
2022-08-05T16:50:53.615Z,19.53
2022-08-05T16:53:22.485Z,19.11
2022-08-05T16:55:50.738Z,18.96
2022-08-05T16:58:19.819Z,19.46
2022-08-05T17:00:48.126Z,19.38
2022-08-05T17:03:20.578Z,19.28
2022-08-05T17:05:53.651Z,19.12
2022-08-05T17:08:52.042Z,19.53
2022-08-05T17:11:16.542Z,19.90
2022-08-05T17:13:45.273Z,19.84
2022-08-05T17:16:29.855Z,20.08
2022-08-05T17:19:00.932Z,20.32
2022-08-05T17:21:35.497Z,20.70
2022-08-05T17:24:18.407Z,21.11
2022-08-05T17:26:53.497Z,21.00
2022-08-05T17:29:33.250Z,21.47
2022-08-05T17:32:01.809Z,21.91
2022-08-05T17:34:29.812Z,22.11
2022-08-05T17:37:00.358Z,22.48
2022-08-05T17:39:34.230Z,22.90
2022-08-05T17:42:18.980Z,23.47
2022-08-05T17:44:50.230Z,23.56
2022-08-05T17:47:21.939Z,23.79
2022-08-05T17:50:00.493Z,23.82
2022-08-05T17:52:32.649Z,24.03
2022-08-05T17:55:00.864Z,24.19
2022-08-05T17:57:30.432Z,24.25
2022-08-05T18:00:03.697Z,24.51
2022-08-05T18:02:34.247Z,24.76
2022-08-05T18:05:06.360Z,24.78
2022-08-05T18:07:42.149Z,24.91
2022-08-05T18:10:11.431Z,25.28
2022-08-05T18:12:41.758Z,25.41
2022-08-05T18:15:09.832Z,25.59
2022-08-05T18:18:01.699Z,25.74
2022-08-05T18:20:29.238Z,25.84
2022-08-05T18:23:04.852Z,26.06
2022-08-05T18:25:39.084Z,26.17
2022-08-05T18:28:07.448Z,26.37
2022-08-05T18:30:40.260Z,26.47
2022-08-05T18:33:08.558Z,26.73
2022-08-05T18:36:00.937Z,27.02
2022-08-05T18:38:30.629Z,27.21
2022-08-05T18:41:56.902Z,27.19
2022-08-05T18:43:49.144Z,27.70
2022-08-05T18:46:20.017Z,27.76
2022-08-05T18:48:53.794Z,27.96
2022-08-05T18:52:05.515Z,28.05
2022-08-05T18:54:28.557Z,28.15
2022-08-05T18:57:01.266Z,28.43
2022-08-05T18:59:43.995Z,28.31
2022-08-05T19:02:28.128Z,28.45
2022-08-05T19:05:02.782Z,28.31
2022-08-05T19:07:47.861Z,28.67
2022-08-05T19:10:16.422Z,28.86
2022-08-05T19:12:46.165Z,29.04
2022-08-05T19:15:56.807Z,29.63
2022-08-05T19:18:10.375Z,29.60
2022-08-05T19:20:41.440Z,29.57
2022-08-05T19:23:22.672Z,29.67
2022-08-05T19:26:01.848Z,29.69
2022-08-05T19:28:31.150Z,29.48
2022-08-05T19:31:00.434Z,29.41
2022-08-05T19:33:35.923Z,29.58
2022-08-05T19:36:05.913Z,29.69
2022-08-05T19:38:37.010Z,29.77
2022-08-05T19:41:07.037Z,29.86
2022-08-05T19:44:06.401Z,29.89
2022-08-05T19:46:29.772Z,30.15
2022-08-05T19:49:03.181Z,30.42
2022-08-05T19:52:09.435Z,30.62
2022-08-05T19:54:27.237Z,30.69
2022-08-05T19:56:59.712Z,30.76
2022-08-05T20:00:00.864Z,30.84
2022-08-05T20:02:23.048Z,30.79
2022-08-05T20:04:50.858Z,31.03
2022-08-05T20:07:46.662Z,31.15
2022-08-05T20:10:13.827Z,31.09
2022-08-05T20:12:45.806Z,31.33
2022-08-05T20:15:14.431Z,31.93
2022-08-05T20:17:41.825Z,31.99
2022-08-05T20:20:11.095Z,31.74
2022-08-05T20:22:38.855Z,31.52
2022-08-05T20:25:11.474Z,31.59
2022-08-05T20:27:41.742Z,31.65
2022-08-05T20:30:11.436Z,32.01
2022-08-05T20:32:45.244Z,31.66
2022-08-05T20:35:13.081Z,32.21
2022-08-05T20:38:05.724Z,31.89
2022-08-05T20:40:30.297Z,32.00
2022-08-05T20:43:01.602Z,32.60
2022-08-05T20:45:56.527Z,32.63
2022-08-05T20:48:17.128Z,32.40
2022-08-05T20:50:45.424Z,32.26
2022-08-05T20:53:16.336Z,32.40
2022-08-05T20:56:08.498Z,32.53
2022-08-05T20:58:36.947Z,32.58
2022-08-05T21:01:04.848Z,32.79
2022-08-05T21:03:34.184Z,32.70
2022-08-05T21:06:02.393Z,32.97
2022-08-05T21:08:35.857Z,32.84
2022-08-05T21:11:15.084Z,32.86
2022-08-05T21:13:47.766Z,32.95
2022-08-05T21:16:30.184Z,32.56
2022-08-05T21:19:01.922Z,34.18
2022-08-05T21:21:43.956Z,34.03
2022-08-05T21:24:19.749Z,33.73
2022-08-05T21:26:56.206Z,33.53
2022-08-05T21:29:31.843Z,33.59
2022-08-05T21:32:01.369Z,33.88
2022-08-05T21:34:29.305Z,35.36
2022-08-05T21:36:59.193Z,34.77
2022-08-05T21:39:28.013Z,34.98
2022-08-05T21:42:01.202Z,35.77
2022-08-05T21:44:31.045Z,35.11
2022-08-05T21:46:59.966Z,34.45
2022-08-05T21:49:48.544Z,34.65
2022-08-05T21:52:15.900Z,34.86
2022-08-05T21:54:55.395Z,35.43
2022-08-05T21:57:32.020Z,35.32
2022-08-05T22:00:05.969Z,35.23
2022-08-05T22:02:39.945Z,35.35
2022-08-05T22:05:10.208Z,35.37
2022-08-05T22:07:40.491Z,36.40
2022-08-05T22:10:27.352Z,36.15
2022-08-05T22:12:57.151Z,36.26
2022-08-05T22:16:01.170Z,36.33
2022-08-05T22:18:14.486Z,36.64
2022-08-05T22:20:44.128Z,36.86
2022-08-05T22:24:02.509Z,36.83
2022-08-05T22:26:36.791Z,37.43
2022-08-05T22:29:05.012Z,37.03
2022-08-05T22:31:44.525Z,36.37
2022-08-05T22:34:20.134Z,36.51
2022-08-05T22:36:56.933Z,37.22
2022-08-05T22:39:31.151Z,37.58
2022-08-05T22:42:11.315Z,37.16
2022-08-05T22:44:48.224Z,36.95
2022-08-05T22:47:28.972Z,37.43
2022-08-05T22:50:19.554Z,36.91
2022-08-05T22:52:48.178Z,37.30
2022-08-05T22:55:18.667Z,38.45
2022-08-05T22:57:49.375Z,38.94
2022-08-05T23:00:18.423Z,38.31
2022-08-05T23:02:49.978Z,37.89
2022-08-05T23:05:17.780Z,38.27
2022-08-05T23:07:49.536Z,37.94
2022-08-05T23:10:23.641Z,38.29
2022-08-05T23:12:55.091Z,37.58
2022-08-05T23:15:29.506Z,38.41
2022-08-05T23:18:03.533Z,38.53
2022-08-05T23:20:33.875Z,37.80
2022-08-05T23:23:08.142Z,37.96
2022-08-05T23:25:51.361Z,38.16
2022-08-05T23:28:21.897Z,37.57
2022-08-05T23:30:53.470Z,37.73
2022-08-05T23:33:26.223Z,37.75
2022-08-05T23:36:10.814Z,38.06
2022-08-05T23:38:41.428Z,38.04
2022-08-05T23:41:10.483Z,38.45
2022-08-05T23:44:05.977Z,38.05
2022-08-05T23:46:25.934Z,37.72
2022-08-05T23:48:59.732Z,38.17
2022-08-05T23:51:53.636Z,37.84
2022-08-05T23:54:29.924Z,38.04
2022-08-05T23:57:03.421Z,38.48
